createdAt,value
2018-02-22T14:01:54.608Z,101370.28
2018-02-22T14:04:26.545Z,101360.59
2018-02-22T15:15:35.356Z,101324.28
2018-02-22T15:27:16.710Z,101338.58
2018-02-22T15:29:55.213Z,101347.27
2018-02-22T15:35:33.834Z,101349.73
2018-02-22T15:59:07.669Z,101354.50
2018-02-22T16:01:37.204Z,101359.91
2018-02-22T16:04:04.179Z,101351.95
2018-02-22T16:06:31.169Z,101355.89
2018-02-22T16:08:58.014Z,101359.17
2018-02-22T16:11:28.200Z,101364.06
2018-02-22T16:13:55.081Z,101354.75
2018-02-22T16:16:21.853Z,101357.05
2018-02-22T16:18:48.540Z,101359.86
2018-02-22T16:21:16.135Z,101359.46
2018-02-22T16:23:42.888Z,101357.84
2018-02-22T16:26:10.834Z,101361.17
2018-02-22T16:28:38.896Z,101356.72
2018-02-22T16:31:05.592Z,101355.81
2018-02-22T16:33:32.337Z,101354.22
2018-02-22T16:35:59.188Z,101358.86
2018-02-22T16:38:25.889Z,101350.83
2018-02-22T16:40:52.597Z,101363.91
2018-02-22T16:43:19.555Z,101365.61
2018-02-22T16:45:46.267Z,101365.72
2018-02-22T16:48:13.322Z,101367.05
2018-02-22T16:50:41.182Z,101367.01
2018-02-22T16:53:08.145Z,101363.20
2018-02-22T16:55:34.994Z,101370.31
2018-02-22T16:58:01.954Z,101369.45
2018-02-22T17:00:28.637Z,101369.88
2018-02-22T17:02:56.130Z,101370.68
2018-02-22T17:05:22.958Z,101375.16
2018-02-22T17:07:49.880Z,101377.27
2018-02-22T17:10:17.062Z,101378.59
2018-02-22T17:25:23.922Z,101391.55
2018-02-22T17:27:56.730Z,101388.11
2018-02-22T17:30:29.788Z,101391.50
2018-02-22T17:32:56.816Z,101389.24
2018-02-22T17:48:48.545Z,101397.25
2018-02-22T17:51:15.501Z,101400.86
2018-02-22T17:53:43.148Z,101396.02
2018-02-22T17:56:09.863Z,101396.99
2018-02-22T17:58:38.988Z,101396.98
2018-02-22T18:01:05.744Z,101400.83
2018-02-22T18:03:32.454Z,101397.79
2018-02-22T18:05:59.117Z,101400.09
2018-02-22T18:08:26.090Z,101401.39
2018-02-22T18:14:15.212Z,101405.34
2018-02-22T18:34:43.882Z,101420.13
2018-02-22T18:50:38.865Z,101437.50
2018-02-22T18:53:06.482Z,101445.78
2018-02-22T18:55:33.900Z,101447.48
2018-02-22T18:58:00.529Z,101447.47
2018-02-22T19:00:27.132Z,101444.03
2018-02-22T19:02:54.956Z,101441.02
2018-02-22T19:05:21.620Z,101442.72
2018-02-22T19:25:47.302Z,101439.27
2018-02-22T19:28:21.028Z,101434.53
2018-02-22T19:49:29.525Z,101439.75
2018-02-22T20:37:58.231Z,101457.08
2018-02-22T21:01:12.621Z,101441.02
